Time;durP1;ratioP1;P1;durP2;ratioP2;P2;SDS_P1;SDS_P2;PMS_P1;PMS_P2;Temp;Humidity;BMP_temperature;BMP_pressure;BME280_temperature;BME280_humidity;BME280_pressure;Samples;Min_cycle;Max_cycle;Signal;HPM_P1;HPM_P2
2023/03/26 00:01:35;;;;;;;4.97;1.20;;;;;;;11.65;52.64;97264.44;8380893;28;20233;-70
2023/03/26 00:05:38;;;;;;;4.93;0.90;;;;;;;11.76;52.39;97269.00;8380321;28;20232;-69
2023/03/26 00:09:41;;;;;;;4.70;1.30;;;;;;;11.83;52.20;97273.72;8380606;28;20248;-69
2023/03/26 00:13:46;;;;;;;3.50;1.20;;;;;;;11.59;53.10;97273.44;8379953;28;20424;-69
2023/03/26 00:17:49;;;;;;;2.57;0.90;;;;;;;11.61;53.31;97283.72;8380379;28;20236;-69
2023/03/26 00:21:53;;;;;;;4.40;1.37;;;;;;;11.78;52.63;97277.53;8380075;28;20240;-70
2023/03/26 00:25:56;;;;;;;3.60;1.00;;;;;;;11.63;52.96;97281.88;8379875;28;20455;-69
2023/03/26 00:30:02;;;;;;;2.47;1.00;;;;;;;11.66;53.16;97281.69;8379916;28;20225;-69
2023/03/26 00:34:05;;;;;;;4.17;1.00;;;;;;;11.61;53.19;97287.13;8379099;28;20221;-69
2023/03/26 00:38:09;;;;;;;4.20;1.20;;;;;;;11.60;53.05;97284.66;8379692;28;20229;-69
2023/03/26 00:42:13;;;;;;;3.43;1.13;;;;;;;11.69;53.16;97287.53;8379664;28;20221;-69
2023/03/26 00:46:17;;;;;;;3.03;1.10;;;;;;;11.54;53.25;97288.44;8379403;28;20452;-69
2023/03/26 00:50:20;;;;;;;3.77;1.20;;;;;;;11.73;53.00;97296.78;8379433;28;20364;-70
2023/03/26 00:54:23;;;;;;;3.20;1.03;;;;;;;11.48;53.78;97281.00;8379250;28;20240;-69
2023/03/26 00:58:26;;;;;;;3.23;1.40;;;;;;;11.75;53.19;97281.16;8379100;28;20240;-69
2023/03/26 01:02:31;;;;;;;4.10;1.60;;;;;;;11.89;52.93;97275.97;8379163;28;20236;-69
2023/03/26 01:06:34;;;;;;;5.63;1.30;;;;;;;11.75;52.97;97283.75;8378970;28;20233;-69
2023/03/26 01:10:38;;;;;;;4.30;1.20;;;;;;;11.85;52.84;97281.44;8378927;28;20229;-69
2023/03/26 01:14:41;;;;;;;3.77;1.20;;;;;;;11.71;53.08;97282.25;8378745;28;20224;-69
2023/03/26 01:18:47;;;;;;;6.10;1.40;;;;;;;11.59;53.64;97272.59;8378838;28;20236;-70
2023/03/26 01:22:53;;;;;;;4.57;1.33;;;;;;;11.71;52.70;97251.13;8378500;28;20536;-69
2023/03/26 01:27:12;;;;;;;4.57;1.43;;;;;;;11.77;52.95;97275.88;8378529;28;20231;-69
2023/03/26 01:31:20;;;;;;;4.50;1.27;;;;;;;11.82;53.08;97276.41;8378550;28;20461;-69
2023/03/26 01:35:29;;;;;;;7.67;2.00;;;;;;;11.81;53.03;97279.94;8378532;28;20445;-69
2023/03/26 01:39:37;;;;;;;5.03;1.50;;;;;;;11.67;52.72;97228.88;8378609;28;20522;-69
2023/03/26 01:43:46;;;;;;;8.20;1.60;;;;;;;11.72;53.22;97274.38;8378276;28;20415;-70
2023/03/26 01:47:49;;;;;;;7.50;1.60;;;;;;;11.77;53.19;97274.09;8384160;28;20236;-69
2023/03/26 01:51:54;;;;;;;4.10;1.23;;;;;;;11.88;53.06;97268.25;8384820;28;20229;-70
2023/03/26 01:56:03;;;;;;;5.03;1.50;;;;;;;11.79;53.21;97258.47;8384677;28;20229;-70
2023/03/26 02:00:15;;;;;;;8.53;1.47;;;;;;;11.52;53.57;97249.63;8384533;28;20527;-70
2023/03/26 02:04:23;;;;;;;5.73;1.40;;;;;;;11.51;53.75;97250.56;8384360;28;20413;-69
2023/03/26 02:08:35;;;;;;;7.50;1.90;;;;;;;11.91;52.86;97249.94;8384333;28;20417;-70
2023/03/26 02:12:37;;;;;;;4.27;1.03;;;;;;;11.77;52.90;97237.78;8384328;28;20570;-70
2023/03/26 02:16:45;;;;;;;5.37;1.33;;;;;;;11.69;53.11;97235.66;8383828;28;20225;-70
2023/03/26 02:20:48;;;;;;;6.50;1.30;;;;;;;11.70;53.10;97215.75;8383740;28;20244;-70
2023/03/26 02:24:51;;;;;;;6.30;1.43;;;;;;;11.87;52.95;97214.72;8383728;28;20233;-69
2023/03/26 02:28:56;;;;;;;6.80;1.80;;;;;;;11.76;52.41;97219.72;8383354;28;20236;-70
2023/03/26 02:33:03;;;;;;;5.27;1.67;;;;;;;11.92;52.15;97210.13;8383657;28;20429;-70
2023/03/26 02:37:06;;;;;;;5.77;1.40;;;;;;;11.62;52.58;97203.25;8383820;28;20224;-70
2023/03/26 02:41:09;;;;;;;4.37;1.50;;;;;;;11.82;51.91;97203.78;8383416;28;20520;-70
2023/03/26 02:45:12;;;;;;;5.73;1.70;;;;;;;11.90;52.05;97209.38;8383534;28;20225;-69
2023/03/26 02:49:16;;;;;;;6.37;1.77;;;;;;;11.89;51.82;97208.53;8383194;28;20232;-70
2023/03/26 02:53:20;;;;;;;8.00;1.80;;;;;;;11.80;51.96;97209.06;8383016;28;20221;-70
2023/03/26 02:57:23;;;;;;;6.07;1.73;;;;;;;11.77;51.68;97192.88;8382675;28;20235;-70
2023/03/26 03:01:29;;;;;;;5.80;1.60;;;;;;;11.77;51.86;97195.47;8383221;28;20233;-70
2023/03/26 03:05:36;;;;;;;5.67;1.97;;;;;;;11.54;52.45;97192.50;8382655;28;20235;-70
2023/03/26 03:09:39;;;;;;;6.03;1.63;;;;;;;11.65;52.11;97184.06;8382640;28;20240;-70
2023/03/26 03:13:44;;;;;;;6.90;1.80;;;;;;;11.61;51.91;97170.44;8381619;28;20398;-69
2023/03/26 03:17:47;;;;;;;7.67;1.57;;;;;;;11.56;52.12;97175.09;8382347;28;20225;-70
2023/03/26 03:21:51;;;;;;;5.40;1.70;;;;;;;11.59;51.83;97174.06;8381825;28;20225;-70
2023/03/26 03:25:55;;;;;;;4.40;1.47;;;;;;;11.56;52.08;97167.31;8381704;28;20332;-70
2023/03/26 03:30:01;;;;;;;6.47;1.73;;;;;;;11.48;51.78;97162.59;8381912;28;20236;-70
2023/03/26 03:34:04;;;;;;;4.40;1.50;;;;;;;11.55;51.71;97158.69;8381603;28;20228;-71
2023/03/26 03:38:08;;;;;;;10.40;1.90;;;;;;;11.54;52.03;97162.22;8381830;28;20396;-70
2023/03/26 03:42:11;;;;;;;8.00;1.80;;;;;;;11.47;52.16;97160.91;8381570;28;20221;-70
2023/03/26 03:46:16;;;;;;;6.10;1.53;;;;;;;11.66;51.42;97163.22;8381432;28;20233;-70
2023/03/26 03:50:19;;;;;;;4.83;1.70;;;;;;;11.49;52.01;97173.78;8381329;28;20562;-70
2023/03/26 03:54:23;;;;;;;6.70;1.83;;;;;;;11.58;51.60;97172.41;8381155;28;20229;-70
2023/03/26 03:58:29;;;;;;;7.00;1.90;;;;;;;11.53;51.81;97170.09;8380835;28;20239;-70
2023/03/26 04:02:33;;;;;;;4.97;1.70;;;;;;;11.57;51.58;97168.97;8380860;28;20240;-70
2023/03/26 04:06:36;;;;;;;9.20;2.33;;;;;;;11.53;51.71;97167.50;8380421;28;20329;-70
2023/03/26 04:10:42;;;;;;;8.40;1.73;;;;;;;11.44;52.27;97158.53;8380103;28;20251;-70
2023/03/26 04:14:45;;;;;;;6.27;1.80;;;;;;;11.46;52.03;97151.50;8379826;28;20244;-69
2023/03/26 04:18:47;;;;;;;7.17;1.80;;;;;;;11.39;52.33;97147.59;8380137;28;20229;-70
2023/03/26 04:22:51;;;;;;;5.80;1.90;;;;;;;11.02;53.59;97136.00;8380044;28;20244;-70
2023/03/26 04:26:56;;;;;;;7.07;1.60;;;;;;;11.24;53.21;97136.38;8379928;28;20516;-70
2023/03/26 04:31:00;;;;;;;8.70;1.87;;;;;;;11.07;54.05;97132.22;8379448;28;20585;-70
2023/03/26 04:35:07;;;;;;;7.37;1.77;;;;;;;11.07;53.61;97110.66;8379777;28;20221;-70
2023/03/26 04:39:12;;;;;;;6.23;1.60;;;;;;;11.24;53.73;97120.84;8379743;28;20224;-70
2023/03/26 04:43:17;;;;;;;5.83;1.90;;;;;;;11.23;53.99;97123.50;8379515;28;20221;-70
2023/03/26 04:47:20;;;;;;;4.30;1.60;;;;;;;11.24;53.79;97120.00;8379468;28;20233;-70
2023/03/26 04:51:26;;;;;;;4.90;1.60;;;;;;;11.30;53.75;97112.69;8379371;28;20231;-70
2023/03/26 04:55:33;;;;;;;5.63;1.77;;;;;;;11.31;53.65;97116.13;8379256;28;20236;-70
2023/03/26 04:59:40;;;;;;;7.53;1.67;;;;;;;11.12;54.71;97103.44;8378912;28;20239;-70
2023/03/26 05:03:44;;;;;;;5.47;1.83;;;;;;;11.26;53.84;97108.63;8378382;28;20243;-71
2023/03/26 05:07:47;;;;;;;5.10;1.33;;;;;;;11.17;54.54;97092.78;8378971;28;20236;-70
2023/03/26 05:11:50;;;;;;;5.17;1.67;;;;;;;11.26;54.18;97087.06;8378922;28;20221;-70
2023/03/26 05:15:55;;;;;;;4.20;1.67;;;;;;;11.26;54.65;97069.75;8378850;28;20335;-70
2023/03/26 05:19:57;;;;;;;4.03;1.60;;;;;;;11.25;54.48;97062.06;8378578;28;20274;-69
2023/03/26 05:24:00;;;;;;;4.73;1.70;;;;;;;11.11;54.73;97053.38;8378383;28;20243;-70
2023/03/26 05:28:03;;;;;;;5.10;1.60;;;;;;;11.23;54.71;97054.41;8378532;28;20239;-70
2023/03/26 05:32:09;;;;;;;4.70;1.73;;;;;;;11.40;54.33;97044.72;8378866;28;20232;-67
2023/03/26 05:36:14;;;;;;;4.33;1.53;;;;;;;11.26;54.84;97043.00;8378491;28;20225;-69
2023/03/26 05:40:17;;;;;;;5.40;1.60;;;;;;;11.40;54.19;97035.19;8378561;28;20228;-70
2023/03/26 05:44:19;;;;;;;4.03;1.47;;;;;;;11.45;54.11;97032.31;8378390;28;20540;-70
2023/03/26 05:48:24;;;;;;;4.73;1.57;;;;;;;11.41;54.28;97025.66;8378204;28;20232;-70
2023/03/26 05:52:27;;;;;;;5.33;1.43;;;;;;;11.50;53.99;97019.91;8378274;28;20232;-70
2023/03/26 05:56:33;;;;;;;5.67;1.73;;;;;;;11.43;54.02;97018.63;8377946;28;20548;-70
2023/03/26 06:00:37;;;;;;;9.37;2.30;;;;;;;11.51;53.75;97004.22;8378205;28;20229;-70
2023/03/26 06:04:41;;;;;;;5.80;2.40;;;;;;;11.77;53.23;96988.78;8378176;28;20235;-70
2023/03/26 06:08:45;;;;;;;7.00;3.30;;;;;;;11.68;53.87;96995.38;8377553;28;20468;-70
2023/03/26 06:12:48;;;;;;;5.57;2.13;;;;;;;11.68;53.53;96981.59;8378005;28;20236;-69
2023/03/26 06:16:51;;;;;;;3.17;1.57;;;;;;;11.78;53.32;96969.69;8378043;28;20225;-69
2023/03/26 06:20:55;;;;;;;3.63;1.80;;;;;;;11.79;53.12;96970.53;8377889;28;20229;-70
2023/03/26 06:24:58;;;;;;;7.23;1.93;;;;;;;11.70;53.11;96967.56;8377675;28;20564;-69
2023/03/26 06:29:01;;;;;;;5.03;1.63;;;;;;;11.77;53.38;96960.25;8377758;28;20251;-70
2023/03/26 06:33:04;;;;;;;5.10;1.80;;;;;;;11.51;53.94;96965.34;8382071;28;20521;-68
2023/03/26 06:37:08;;;;;;;3.97;1.70;;;;;;;11.70;53.29;96966.75;8383445;28;20532;-70
2023/03/26 06:41:11;;;;;;;6.03;1.60;;;;;;;11.59;53.98;96964.03;8383519;28;20259;-70
2023/03/26 06:45:14;;;;;;;3.47;1.70;;;;;;;11.57;53.54;96961.53;8383702;28;20225;-70
2023/03/26 06:49:17;;;;;;;5.93;1.83;;;;;;;11.47;54.03;96961.28;8384008;28;20233;-69
2023/03/26 06:53:21;;;;;;;5.90;1.87;;;;;;;11.62;53.98;96956.88;8383637;28;20228;-70
2023/03/26 06:57:24;;;;;;;5.43;1.97;;;;;;;11.61;53.86;96947.41;8383551;28;20240;-70
2023/03/26 07:01:27;;;;;;;4.37;1.87;;;;;;;11.20;55.08;96932.78;8383616;28;20233;-70
2023/03/26 07:05:30;;;;;;;4.37;1.47;;;;;;;11.55;53.99;96951.25;8383421;28;20231;-69
2023/03/26 07:09:37;;;;;;;4.70;1.70;;;;;;;11.86;53.47;96958.78;8383505;28;20407;-70
2023/03/26 07:13:40;;;;;;;4.23;1.93;;;;;;;11.76;53.46;96957.75;8383306;28;20275;-70
2023/03/26 07:17:43;;;;;;;4.37;1.50;;;;;;;11.70;53.78;96946.84;8382282;28;20229;-69
2023/03/26 07:21:46;;;;;;;5.63;1.80;;;;;;;12.05;52.74;96945.47;8382782;28;20277;-69
2023/03/26 07:25:51;;;;;;;4.43;1.90;;;;;;;11.29;54.73;96949.47;8382361;28;20237;-71
2023/03/26 07:29:58;;;;;;;4.33;1.50;;;;;;;11.88;53.26;96928.41;8382235;28;20332;-71
2023/03/26 07:34:06;;;;;;;3.27;1.80;;;;;;;12.08;52.99;96924.53;8382437;28;20740;-72
2023/03/26 07:38:30;;;;;;;5.53;1.80;;;;;;;11.89;53.23;96920.53;8382151;28;20229;-72
2023/03/26 07:42:46;;;;;;;5.37;1.70;;;;;;;11.60;54.44;96919.03;8381677;28;20229;-71
2023/03/26 07:46:52;;;;;;;5.43;1.93;;;;;;;12.02;53.35;96910.19;8381513;28;20248;-71
2023/03/26 07:50:56;;;;;;;5.70;1.83;;;;;;;11.91;53.84;96912.66;8381939;28;20533;-71
2023/03/26 07:54:59;;;;;;;8.03;2.13;;;;;;;11.72;54.44;96884.50;8381361;28;20232;-74
2023/03/26 07:59:12;;;;;;;4.07;1.80;;;;;;;11.63;55.08;96883.34;8381469;28;20322;-71
2023/03/26 08:03:30;;;;;;;4.57;2.07;;;;;;;11.91;53.95;96879.75;8381175;28;20225;-71
2023/03/26 08:07:41;;;;;;;5.20;2.50;;;;;;;12.25;53.57;96874.06;8380910;28;20296;-72
2023/03/26 08:11:48;;;;;;;7.07;2.40;;;;;;;12.04;54.15;96873.75;8380483;28;20225;-71
2023/03/26 08:16:00;;;;;;;5.97;1.77;;;;;;;11.70;55.42;96852.66;8380912;28;20405;-72
2023/03/26 08:20:09;;;;;;;5.87;1.93;;;;;;;11.93;54.95;96858.91;8380587;28;20331;-71
2023/03/26 08:24:18;;;;;;;8.70;2.10;;;;;;;11.62;55.80;96857.53;8380519;28;20237;-71
2023/03/26 08:28:30;;;;;;;4.53;1.57;;;;;;;11.88;55.13;96858.34;8379930;28;20229;-70
2023/03/26 08:32:35;;;;;;;6.23;1.50;;;;;;;11.75;56.22;96853.19;8380240;28;20516;-71
2023/03/26 08:36:38;;;;;;;8.47;2.07;;;;;;;11.55;56.90;96833.75;8379972;28;20228;-71
2023/03/26 08:41:23;;;;;;;5.77;2.10;;;;;;;11.18;58.55;96824.97;8379628;28;20291;-71
2023/03/26 08:46:01;;;;;;;7.10;1.97;;;;;;;11.68;58.12;96821.63;8342176;28;20225;-72
2023/03/26 08:50:48;;;;;;;5.47;2.07;;;;;;;11.96;58.12;96829.34;8379210;28;20256;-71
2023/03/26 08:55:21;;;;;;;6.93;2.30;;;;;;;11.70;58.59;96822.34;8347387;28;20528;-70
2023/03/26 08:59:55;;;;;;;7.33;2.53;;;;;;;11.37;60.39;96812.47;8378637;28;20243;-71
2023/03/26 09:04:21;;;;;;;5.93;2.10;;;;;;;11.54;59.76;96814.78;8379062;28;20224;-71
2023/03/26 09:08:59;;;;;;;4.73;2.10;;;;;;;11.39;60.14;96809.78;8379390;28;20240;-71
2023/03/26 09:13:28;;;;;;;6.63;2.27;;;;;;;11.40;60.13;96801.88;8378986;28;20232;-71
2023/03/26 09:18:04;;;;;;;4.20;1.87;;;;;;;11.64;60.12;96807.19;8366637;28;20233;-71
2023/03/26 09:22:22;;;;;;;8.23;2.20;;;;;;;11.78;59.62;96802.84;8378367;28;20499;-71
2023/03/26 09:26:26;;;;;;;6.47;2.10;;;;;;;11.68;59.83;96795.69;8378280;28;20354;-71
2023/03/26 09:30:41;;;;;;;6.53;2.50;;;;;;;11.30;61.61;96790.47;8378447;28;20642;-71
2023/03/26 09:34:59;;;;;;;6.23;2.20;;;;;;;11.69;60.78;96797.34;8378032;28;20220;-70
2023/03/26 09:39:08;;;;;;;6.63;2.63;;;;;;;11.78;60.31;96803.66;8378563;28;20252;-71
2023/03/26 09:43:32;;;;;;;7.07;2.37;;;;;;;11.74;60.99;96789.25;8378685;28;20240;-71
2023/03/26 09:48:00;;;;;;;6.90;2.50;;;;;;;11.77;61.35;96788.25;8378682;28;20225;-72
2023/03/26 09:52:16;;;;;;;6.57;2.27;;;;;;;11.91;60.96;96785.53;8378438;28;20363;-72
2023/03/26 09:56:32;;;;;;;6.60;2.27;;;;;;;11.55;62.04;96797.44;8378260;28;20497;-72
2023/03/26 10:00:41;;;;;;;6.30;2.60;;;;;;;11.77;61.62;96786.47;8378518;28;20306;-72
2023/03/26 10:05:04;;;;;;;6.77;2.40;;;;;;;11.63;61.35;96769.25;8377605;28;20525;-71
2023/03/26 10:09:22;;;;;;;7.63;2.50;;;;;;;11.76;61.62;96776.19;8384628;28;20427;-71
2023/03/26 10:13:31;;;;;;;6.70;2.40;;;;;;;11.79;61.93;96773.41;8384378;28;20237;-72
2023/03/26 10:17:46;;;;;;;9.47;2.10;;;;;;;11.26;63.58;96770.88;8384330;28;20225;-71
2023/03/26 10:21:55;;;;;;;4.67;2.47;;;;;;;11.29;63.56;96779.28;8383740;28;20221;-71
2023/03/26 10:26:09;;;;;;;7.53;2.07;;;;;;;10.93;62.31;96782.50;8383477;28;20240;-71
2023/03/26 10:30:33;;;;;;;4.87;1.90;;;;;;;11.03;63.21;96762.84;8383544;28;20230;-71
2023/03/26 10:35:03;;;;;;;6.37;2.30;;;;;;;11.32;62.27;96754.91;8383319;28;20243;-71
2023/03/26 10:39:22;;;;;;;9.17;2.57;;;;;;;10.91;64.77;96743.75;8382945;28;20236;-71
2023/03/26 10:44:13;;;;;;;7.13;1.87;;;;;;;11.39;62.48;96756.16;8383545;28;20233;-72
2023/03/26 10:48:54;;;;;;;5.33;1.70;;;;;;;12.10;59.88;96743.59;8381236;28;20248;-72
2023/03/26 10:53:00;;;;;;;12.03;2.10;;;;;;;11.90;61.47;96742.41;8383068;28;20225;-72
2023/03/26 10:57:06;;;;;;;3.67;1.63;;;;;;;11.93;59.86;96747.34;8383185;28;20244;-71
2023/03/26 11:01:15;;;;;;;3.13;1.70;;;;;;;12.62;58.10;96726.06;8383693;28;20236;-71
2023/03/26 11:05:26;;;;;;;8.17;2.00;;;;;;;12.30;59.19;96727.44;8382912;28;20278;-71
2023/03/26 11:09:36;;;;;;;5.10;2.10;;;;;;;11.65;61.25;96731.09;8382710;28;20233;-70
2023/03/26 11:13:58;;;;;;;2.87;1.50;;;;;;;11.55;59.43;96720.47;8382732;28;20232;-70
2023/03/26 11:18:08;;;;;;;5.60;1.70;;;;;;;11.57;60.19;96712.59;8382603;28;20236;-71
2023/03/26 11:22:17;;;;;;;2.30;1.50;;;;;;;11.13;61.35;96704.28;8382516;28;20572;-71
2023/03/26 11:26:25;;;;;;;4.60;2.00;;;;;;;11.14;61.11;96707.75;8382434;28;20256;-71
2023/03/26 11:30:34;;;;;;;4.20;1.87;;;;;;;11.35;59.72;96690.75;8382472;28;20459;-71
2023/03/26 11:34:40;;;;;;;3.13;1.60;;;;;;;10.88;61.56;96688.72;8381734;28;20426;-70
2023/03/26 11:38:44;;;;;;;2.53;1.40;;;;;;;10.80;61.63;96691.00;8381257;28;20236;-71
2023/03/26 11:42:50;;;;;;;2.70;1.30;;;;;;;11.08;60.56;96684.81;8381679;28;20237;-71
2023/03/26 11:47:03;;;;;;;4.53;1.40;;;;;;;11.11;61.19;96682.84;8381488;28;20239;-71
2023/03/26 11:51:09;;;;;;;4.33;1.90;;;;;;;11.45;61.05;96687.53;8381379;28;20228;-72
2023/03/26 11:55:12;;;;;;;3.87;2.57;;;;;;;10.98;62.23;96666.47;8380826;28;20233;-73
2023/03/26 11:59:16;;;;;;;4.27;1.90;;;;;;;11.40;61.26;96698.19;8381290;28;20231;-72
2023/03/26 12:03:23;;;;;;;3.63;1.93;;;;;;;11.41;60.87;96681.72;8381203;28;20509;-71
2023/03/26 12:07:31;;;;;;;4.23;1.90;;;;;;;11.51;61.20;96679.31;8381043;28;20416;-71
2023/03/26 12:11:34;;;;;;;5.13;2.30;;;;;;;11.26;62.69;96649.88;8380918;28;20550;-71
2023/03/26 12:15:42;;;;;;;4.23;1.80;;;;;;;11.84;61.00;96672.72;8380733;28;20232;-71
2023/03/26 12:19:47;;;;;;;2.37;1.77;;;;;;;12.07;60.58;96658.16;8380326;28;20240;-70
2023/03/26 12:23:58;;;;;;;4.03;1.73;;;;;;;12.60;59.56;96634.47;8380374;28;20277;-71
2023/03/26 12:28:03;;;;;;;6.33;2.00;;;;;;;12.80;58.08;96625.19;8379947;28;20559;-71
2023/03/26 12:32:12;;;;;;;3.70;2.33;;;;;;;14.12;57.05;96599.41;8380437;28;20225;-72
2023/03/26 12:36:32;;;;;;;3.63;1.40;;;;;;;14.82;54.15;96592.81;8380163;28;20233;-71
2023/03/26 12:40:38;;;;;;;3.40;1.50;;;;;;;14.75;52.75;96596.88;8380275;28;20532;-72
2023/03/26 12:44:44;;;;;;;2.93;1.53;;;;;;;14.13;53.88;96590.66;8379830;28;20299;-72
2023/03/26 12:49:04;;;;;;;2.50;1.50;;;;;;;15.69;52.71;96586.34;8379517;28;20233;-71
2023/03/26 12:53:32;;;;;;;2.27;1.53;;;;;;;15.50;51.22;96578.44;8379858;28;20283;-71
2023/03/26 12:57:37;;;;;;;6.03;1.57;;;;;;;15.64;51.20;96544.97;8378391;28;20551;-72
2023/03/26 13:01:49;;;;;;;1.90;1.30;;;;;;;15.89;48.73;96566.34;8379476;28;20587;-71
2023/03/26 13:06:10;;;;;;;1.50;1.10;;;;;;;15.70;50.64;96561.06;8378746;28;20229;-71
2023/03/26 13:10:35;;;;;;;3.07;1.00;;;;;;;15.58;49.36;96562.97;8378876;28;20233;-72
2023/03/26 13:14:57;;;;;;;1.80;0.83;;;;;;;15.39;47.71;96563.75;8379256;28;20225;-71
2023/03/26 13:19:04;;;;;;;2.37;1.10;;;;;;;15.37;48.52;96544.78;8377880;28;20232;-71
2023/03/26 13:23:14;;;;;;;2.03;1.30;;;;;;;14.86;47.62;96549.91;8378895;28;20545;-72
2023/03/26 13:27:30;;;;;;;1.53;1.03;;;;;;;14.70;48.01;96552.16;8378607;28;20229;-71
2023/03/26 13:31:37;;;;;;;2.37;1.30;;;;;;;14.68;47.91;96548.88;8378772;28;20232;-71
2023/03/26 13:35:47;;;;;;;2.50;1.10;;;;;;;14.32;47.19;96547.47;8378908;28;20240;-71
2023/03/26 13:39:57;;;;;;;2.33;1.20;;;;;;;14.13;48.20;96554.19;8379850;28;20236;-71
2023/03/26 13:44:09;;;;;;;1.73;1.00;;;;;;;13.95;49.14;96543.47;8385344;28;20524;-71
2023/03/26 13:48:15;;;;;;;1.93;1.17;;;;;;;13.74;52.57;96559.03;8385384;28;20233;-70
2023/03/26 13:52:22;;;;;;;3.83;1.43;;;;;;;13.16;55.13;96582.59;8384974;28;20228;-72
2023/03/26 13:56:29;;;;;;;2.87;1.07;;;;;;;13.65;56.78;96551.97;8384843;28;20243;-72
2023/03/26 14:00:48;;;;;;;2.30;1.00;;;;;;;14.78;55.40;96557.56;8384973;28;20547;-72
2023/03/26 14:04:56;;;;;;;1.37;1.00;;;;;;;14.15;53.22;96533.25;8384360;28;20227;-72
2023/03/26 14:09:03;;;;;;;1.37;1.00;;;;;;;15.30;52.05;96518.41;8384636;28;20246;-72
2023/03/26 14:13:10;;;;;;;1.03;0.60;;;;;;;15.60;52.44;96509.69;8384422;28;20235;-72
2023/03/26 14:17:19;;;;;;;1.13;0.70;;;;;;;15.94;49.65;96511.13;8384369;28;20232;-72
2023/03/26 14:21:47;;;;;;;1.03;0.70;;;;;;;16.22;49.63;96505.09;8384359;28;20228;-72
2023/03/26 14:26:02;;;;;;;1.07;1.00;;;;;;;15.78;48.82;96504.69;8383407;28;20529;-72
2023/03/26 14:30:37;;;;;;;1.23;1.13;;;;;;;16.46;50.10;96495.97;8384161;28;20236;-72
2023/03/26 14:34:58;;;;;;;0.97;0.70;;;;;;;16.73;48.07;96489.16;8383807;28;20233;-72
2023/03/26 14:39:25;;;;;;;1.37;0.90;;;;;;;16.98;47.57;96485.94;8383478;28;20507;-72
2023/03/26 14:44:18;;;;;;;3.10;1.10;;;;;;;16.45;48.30;96486.50;8376723;28;20243;-73
2023/03/26 14:48:38;;;;;;;1.70;1.03;;;;;;;16.91;47.81;96458.72;8305238;28;20238;-72
2023/03/26 14:52:47;;;;;;;1.63;1.33;;;;;;;16.82;47.40;96459.59;8382280;28;20295;-72
2023/03/26 14:57:20;;;;;;;1.40;1.00;;;;;;;17.15;47.92;96452.13;8382586;28;20232;-72
2023/03/26 15:01:26;;;;;;;1.90;1.20;;;;;;;16.79;47.68;96452.84;8382630;28;20239;-73
2023/03/26 15:05:46;;;;;;;2.27;0.97;;;;;;;16.40;45.72;96444.28;8382839;28;20230;-72
2023/03/26 15:10:21;;;;;;;1.87;1.17;;;;;;;15.50;46.86;96393.22;8382404;28;20232;-72
2023/03/26 15:14:44;;;;;;;1.67;1.57;;;;;;;16.15;47.25;96430.88;8357059;28;20233;-72
2023/03/26 15:19:25;;;;;;;1.67;1.10;;;;;;;16.09;44.14;96441.03;8382309;28;20545;-72
2023/03/26 15:23:52;;;;;;;2.37;0.70;;;;;;;16.03;42.17;96443.25;8382076;28;20250;-73
2023/03/26 15:28:17;;;;;;;1.40;0.80;;;;;;;15.73;41.91;96436.41;8382205;28;20243;-72
2023/03/26 15:32:56;;;;;;;2.20;0.73;;;;;;;16.13;41.40;96440.63;8382158;28;20233;-72
2023/03/26 15:37:33;;;;;;;1.57;0.70;;;;;;;15.67;42.12;96436.91;8379334;28;20234;-72
2023/03/26 15:41:42;;;;;;;1.97;0.83;;;;;;;15.73;41.55;96443.38;8363748;28;20429;-72
2023/03/26 15:45:52;;;;;;;1.10;0.70;;;;;;;15.91;40.88;96441.75;8381433;28;20237;-72
2023/03/26 15:49:59;;;;;;;1.17;0.60;;;;;;;15.48;39.33;96442.94;8381802;28;20228;-72
2023/03/26 15:54:07;;;;;;;2.07;0.80;;;;;;;15.78;38.96;96429.00;8381557;28;20247;-72
2023/03/26 15:58:15;;;;;;;1.33;0.60;;;;;;;15.75;38.07;96436.25;8381550;28;20237;-72
2023/03/26 16:02:27;;;;;;;1.60;0.60;;;;;;;15.23;38.15;96434.66;8381243;28;20251;-72
2023/03/26 16:06:40;;;;;;;2.53;0.73;;;;;;;14.91;38.32;96414.00;8380575;28;20264;-72
2023/03/26 16:10:49;;;;;;;1.93;0.80;;;;;;;14.99;38.82;96427.19;8380620;28;20233;-71
2023/03/26 16:15:15;;;;;;;2.03;0.70;;;;;;;15.03;38.84;96436.38;8380291;28;20528;-71
2023/03/26 16:19:48;;;;;;;1.10;0.67;;;;;;;14.63;38.51;96432.00;8380881;28;20238;-72
2023/03/26 16:23:54;;;;;;;2.73;0.67;;;;;;;14.69;39.10;96433.25;8380094;28;20228;-72
2023/03/26 16:28:21;;;;;;;3.37;0.73;;;;;;;14.65;39.79;96427.47;8380204;28;20229;-72
2023/03/26 16:32:27;;;;;;;1.33;0.60;;;;;;;14.60;39.87;96434.03;8380001;28;20297;-72
2023/03/26 16:36:34;;;;;;;1.57;0.60;;;;;;;14.57;39.84;96434.31;8380049;28;20294;-72
2023/03/26 16:40:50;;;;;;;1.30;0.80;;;;;;;14.27;39.60;96436.72;8380177;28;20232;-71
2023/03/26 16:45:01;;;;;;;1.60;0.90;;;;;;;14.33;39.57;96442.38;8379707;28;20234;-72
2023/03/26 16:49:10;;;;;;;2.03;0.83;;;;;;;14.33;40.23;96451.00;8380071;28;20225;-71
2023/03/26 16:53:23;;;;;;;1.90;0.80;;;;;;;14.03;40.63;96430.94;8379871;28;20232;-72
2023/03/26 16:57:28;;;;;;;1.20;1.00;;;;;;;14.24;40.54;96446.56;8379824;28;20252;-72
2023/03/26 17:01:40;;;;;;;2.03;1.03;;;;;;;14.28;41.48;96446.19;8379904;28;20232;-72
2023/03/26 17:06:05;;;;;;;2.10;0.80;;;;;;;14.12;40.28;96455.41;8379373;28;20231;-71
2023/03/26 17:10:15;;;;;;;2.00;1.07;;;;;;;14.00;40.92;96450.25;8378675;28;20415;-71
2023/03/26 17:14:28;;;;;;;2.23;0.90;;;;;;;14.09;41.94;96459.09;8379026;28;20232;-73
2023/03/26 17:18:38;;;;;;;4.83;1.30;;;;;;;14.08;41.26;96463.44;8379342;28;20227;-73
2023/03/26 17:22:43;;;;;;;2.37;1.13;;;;;;;14.11;42.10;96470.19;8378519;28;20243;-70
2023/03/26 17:26:55;;;;;;;2.27;1.17;;;;;;;13.89;42.35;96471.94;8379267;28;20365;-70
2023/03/26 17:31:03;;;;;;;2.10;1.17;;;;;;;13.96;43.00;96484.47;8378944;28;20423;-72
2023/03/26 17:35:09;;;;;;;3.07;1.73;;;;;;;13.87;42.98;96494.66;8379149;28;20572;-72
2023/03/26 17:39:19;;;;;;;3.10;1.50;;;;;;;13.64;43.31;96503.50;8378983;28;20387;-72
2023/03/26 17:43:43;;;;;;;3.93;1.50;;;;;;;13.73;43.44;96512.34;8379085;28;20232;-72
2023/03/26 17:47:48;;;;;;;3.40;1.40;;;;;;;13.34;44.45;96523.19;8378374;28;20236;-71
2023/03/26 17:51:55;;;;;;;2.23;1.07;;;;;;;12.74;45.18;96459.41;8378716;28;20292;-72
2023/03/26 17:56:02;;;;;;;1.23;0.70;;;;;;;13.01;45.35;96537.81;8377817;28;20239;-72
2023/03/26 18:00:11;;;;;;;0.53;0.53;;;;;;;12.95;45.87;96532.28;8378433;28;20384;-72
2023/03/26 18:04:17;;;;;;;0.93;0.50;;;;;;;12.78;45.63;96538.75;8378663;28;20550;-71
2023/03/26 18:08:44;;;;;;;1.27;0.70;;;;;;;12.68;46.46;96543.84;8378441;28;20507;-72
2023/03/26 18:13:05;;;;;;;1.93;0.90;;;;;;;13.60;59.69;96539.34;8377729;28;20260;-72
2023/03/26 18:17:10;;;;;;;3.70;0.87;;;;;;;14.94;53.02;96544.06;8378284;28;20225;-72
2023/03/26 18:21:18;;;;;;;1.50;0.90;;;;;;;15.28;48.49;96545.59;8378491;28;20281;-73
2023/03/26 18:25:25;;;;;;;1.87;1.00;;;;;;;15.29;45.65;96532.41;8378159;28;20238;-73
2023/03/26 18:29:29;;;;;;;1.57;0.80;;;;;;;14.88;45.22;96539.38;8383489;28;20239;-72
2023/03/26 18:33:41;;;;;;;1.30;0.80;;;;;;;14.68;44.26;96537.59;8383890;28;20243;-70
2023/03/26 18:37:44;;;;;;;0.40;0.40;;;;;;;13.74;45.65;96537.41;8383870;28;20539;-70
2023/03/26 18:41:51;;;;;;;1.27;0.70;;;;;;;13.56;46.98;96540.53;8384339;28;20429;-71
2023/03/26 18:45:54;;;;;;;1.00;0.50;;;;;;;13.09;47.53;96543.25;8384015;28;20422;-71
2023/03/26 18:49:59;;;;;;;0.47;0.47;;;;;;;13.04;47.71;96537.59;8383768;28;20235;-71
2023/03/26 18:54:04;;;;;;;0.90;0.50;;;;;;;12.90;48.44;96546.44;8383976;28;20384;-71
2023/03/26 18:58:19;;;;;;;1.37;0.70;;;;;;;12.87;48.60;96544.09;8383701;28;20226;-72
2023/03/26 19:02:22;;;;;;;0.70;0.50;;;;;;;13.47;47.27;96551.66;8381751;28;20629;-72
2023/03/26 19:06:26;;;;;;;1.03;0.60;;;;;;;12.54;49.75;96536.25;8383042;28;20485;-71
2023/03/26 19:10:31;;;;;;;1.20;0.60;;;;;;;12.13;49.97;96521.03;8383146;28;20236;-70
2023/03/26 19:14:50;;;;;;;1.43;0.87;;;;;;;12.39;49.92;96533.00;8382976;28;20245;-70
2023/03/26 19:18:54;;;;;;;1.47;0.50;;;;;;;12.06;50.45;96535.38;8382507;28;20225;-69
2023/03/26 19:22:58;;;;;;;1.03;0.60;;;;;;;12.05;51.22;96535.50;8382454;28;20260;-71
2023/03/26 19:27:04;;;;;;;1.70;0.90;;;;;;;11.97;51.34;96532.63;8382708;28;20300;-70
2023/03/26 19:31:08;;;;;;;1.10;1.00;;;;;;;12.07;51.22;96537.06;8382709;28;20525;-70
2023/03/26 19:35:19;;;;;;;0.40;0.40;;;;;;;11.66;51.27;96478.59;8382588;28;20267;-71
2023/03/26 19:39:23;;;;;;;1.00;0.53;;;;;;;11.83;52.06;96539.63;8382404;28;20228;-70